createdAt,value
2023-02-24T00:01:18.772Z,95916.44
2023-02-24T00:06:23.318Z,95911.03
2023-02-24T00:11:28.098Z,95901.00
2023-02-24T00:16:31.067Z,95895.84
2023-02-24T00:21:36.037Z,95897.75
2023-02-24T00:26:39.113Z,95886.88
2023-02-24T00:31:43.685Z,95879.56
2023-02-24T00:36:50.251Z,95876.03
2023-02-24T00:41:54.364Z,95868.72
2023-02-24T00:46:58.044Z,95871.44
2023-02-24T00:52:04.705Z,95869.81
2023-02-24T00:57:09.902Z,95862.78
2023-02-24T01:02:12.869Z,95864.06
2023-02-24T01:07:17.760Z,95861.69
2023-02-24T01:12:38.103Z,95869.81
2023-02-24T01:17:41.014Z,95868.22
2023-02-24T01:22:46.505Z,95865.19
2023-02-24T01:27:49.455Z,95850.81
2023-02-24T01:32:52.846Z,95849.72
2023-02-24T01:37:58.294Z,95840.75
2023-02-24T01:43:01.140Z,95844.59
2023-02-24T01:48:06.076Z,95838.06
2023-02-24T01:53:10.603Z,95835.66
2023-02-24T01:58:17.581Z,95835.66
2023-02-24T02:03:25.237Z,95837.56
2023-02-24T02:08:29.740Z,95841.88
2023-02-24T02:13:35.761Z,95829.91
2023-02-24T02:18:46.575Z,95833.44
2023-02-24T02:23:58.346Z,95823.69
2023-02-24T02:29:16.230Z,95816.66
2023-02-24T02:34:32.840Z,95815.03
2023-02-24T02:39:44.350Z,95814.25
2023-02-24T02:44:56.623Z,95808.53
2023-02-24T02:50:08.096Z,95809.31
2023-02-24T02:55:14.043Z,95809.31
2023-02-24T03:00:21.612Z,95805.00
2023-02-24T03:05:29.701Z,95795.53
2023-02-24T03:10:34.287Z,95802.06
2023-02-24T03:15:42.030Z,95800.97
2023-02-24T03:20:49.090Z,95789.00
2023-02-24T03:25:54.782Z,95782.47
2023-02-24T03:31:03.606Z,95786.81
2023-02-24T03:36:08.244Z,95785.19
2023-02-24T03:41:11.676Z,95790.09
2023-02-24T03:46:15.933Z,95793.13
2023-02-24T03:51:23.287Z,95797.22
2023-02-24T03:56:33.313Z,95787.19
2023-02-24T04:01:42.975Z,95802.06
2023-02-24T04:06:50.204Z,95796.66
2023-02-24T04:11:57.600Z,95792.53
2023-02-24T04:17:03.542Z,95797.44
2023-02-24T04:22:10.220Z,95790.09
2023-02-24T04:27:15.444Z,95790.41
2023-02-24T04:32:21.179Z,95793.41
2023-02-24T04:37:31.789Z,95777.94
2023-02-24T04:42:34.642Z,95786.09
2023-02-24T04:47:37.490Z,95781.47
2023-02-24T04:52:45.355Z,95777.94
2023-02-24T04:57:48.264Z,95783.38
2023-02-24T05:02:51.746Z,95779.06
2023-02-24T05:07:58.285Z,95779.84
2023-02-24T05:13:02.549Z,95763.88
2023-02-24T05:18:08.017Z,95766.59
2023-02-24T05:23:12.181Z,95771.50
2023-02-24T05:28:16.380Z,95757.63
2023-02-24T05:33:21.476Z,95752.22
2023-02-24T05:38:27.026Z,95750.31
2023-02-24T05:43:31.235Z,95745.19
2023-02-24T05:48:35.390Z,95741.66
2023-02-24T05:53:42.326Z,95758.75
2023-02-24T05:58:45.377Z,95748.19
2023-02-24T06:03:48.578Z,95742.75
2023-02-24T06:08:53.513Z,95739.25
2023-02-24T06:13:58.672Z,95732.72
2023-02-24T06:19:01.978Z,95720.75
2023-02-24T06:24:08.898Z,95729.72
2023-02-24T06:29:16.338Z,95737.34
2023-02-24T06:34:19.304Z,95735.72
2023-02-24T06:39:23.645Z,95736.00
2023-02-24T06:44:26.661Z,95733.84
2023-02-24T06:49:30.136Z,95731.63
2023-02-24T06:54:36.614Z,95732.44
2023-02-24T06:59:40.094Z,95735.63
2023-02-24T07:04:44.637Z,95739.47
2023-02-24T07:09:49.118Z,95744.06
2023-02-24T07:14:51.901Z,95739.47
2023-02-24T07:19:55.145Z,95746.00
2023-02-24T07:25:01.541Z,95742.47
2023-02-24T07:30:06.460Z,95751.91
2023-02-24T07:35:11.077Z,95737.53
2023-02-24T07:40:17.389Z,95734.53
2023-02-24T07:45:20.958Z,95740.44
2023-02-24T07:50:23.889Z,95742.09
2023-02-24T07:55:31.185Z,95739.66
2023-02-24T08:00:50.255Z,95742.38
2023-02-24T08:05:58.990Z,95742.38
2023-02-24T08:11:04.184Z,95749.91
2023-02-24T08:16:07.559Z,95735.25
2023-02-24T08:21:10.602Z,95730.44
2023-02-24T08:26:14.990Z,95715.31
2023-02-24T08:31:18.789Z,95715.19
2023-02-24T08:36:21.649Z,95712.72
2023-02-24T08:41:44.744Z,95718.03
2023-02-24T08:46:49.354Z,95699.75
2023-02-24T08:51:53.559Z,95681.94
2023-02-24T08:56:57.888Z,95670.25
2023-02-24T09:02:14.768Z,95661.38
2023-02-24T09:07:20.824Z,95663.53
2023-02-24T09:12:28.976Z,95662.13
2023-02-24T09:17:49.757Z,95663.69
2023-02-24T09:23:03.656Z,95666.28
2023-02-24T09:28:09.624Z,95659.44
2023-02-24T09:33:22.256Z,95657.50
2023-02-24T09:38:46.090Z,95651.78
2023-02-24T09:43:59.818Z,95653.91
2023-02-24T09:49:10.285Z,95655.19
2023-02-24T09:54:17.037Z,95648.16
2023-02-24T09:59:27.035Z,95637.31
2023-02-24T10:04:40.652Z,95639.00
2023-02-24T10:09:45.581Z,95624.41
2023-02-24T10:14:53.917Z,95612.44
2023-02-24T10:20:13.808Z,95614.75
2023-02-24T10:25:24.979Z,95614.44
2023-02-24T10:30:43.660Z,95615.69
2023-02-24T10:35:46.599Z,95616.19
2023-02-24T10:40:56.780Z,95612.19
2023-02-24T10:46:07.105Z,95600.72
2023-02-24T10:51:23.034Z,95591.63
2023-02-24T10:56:27.967Z,95578.28
2023-02-24T11:01:43.779Z,95578.28
2023-02-24T11:06:58.030Z,95567.84
2023-02-24T11:12:23.930Z,95563.50
2023-02-24T11:17:28.222Z,95552.63
2023-02-24T11:22:33.881Z,95539.97
2023-02-24T11:27:36.801Z,95527.00
2023-02-24T11:32:53.423Z,95522.97
2023-02-24T11:38:03.277Z,95514.72
2023-02-24T11:43:10.564Z,95504.06
2023-02-24T11:48:19.639Z,95504.06
2023-02-24T11:53:28.103Z,95494.38
2023-02-24T11:58:36.812Z,95484.06
2023-02-24T12:03:49.410Z,95479.75
2023-02-24T12:08:55.282Z,95463.00
2023-02-24T12:14:06.980Z,95454.16
2023-02-24T12:19:18.533Z,95444.63
2023-02-24T12:24:22.328Z,95434.28
2023-02-24T12:29:42.440Z,95431.84
2023-02-24T12:34:55.170Z,95410.63
2023-02-24T12:40:11.555Z,95400.75
2023-02-24T12:45:18.865Z,95392.25
2023-02-24T12:50:33.984Z,95388.53
2023-02-24T12:55:41.854Z,95387.09
2023-02-24T13:00:53.449Z,95374.44
2023-02-24T13:06:03.943Z,95373.25
2023-02-24T13:11:13.217Z,95363.81
2023-02-24T13:16:19.188Z,95362.41
2023-02-24T13:21:24.812Z,95357.75
2023-02-24T13:26:29.608Z,95355.75
2023-02-24T13:31:43.336Z,95351.47
2023-02-24T13:36:51.335Z,95338.13
2023-02-24T13:42:04.690Z,95325.97
2023-02-24T13:47:49.002Z,95328.75
2023-02-24T13:53:05.168Z,95323.63
2023-02-24T13:58:19.844Z,95317.38
2023-02-24T14:03:25.568Z,95301.38
2023-02-24T14:08:36.840Z,95296.03
2023-02-24T14:13:39.976Z,95287.78
2023-02-24T14:18:42.757Z,95275.34
2023-02-24T14:23:56.790Z,95272.31
2023-02-24T14:29:02.811Z,95271.34
2023-02-24T14:34:09.007Z,95267.88
2023-02-24T14:39:17.922Z,95264.19
2023-02-24T14:44:23.690Z,95263.13
2023-02-24T14:49:28.794Z,95262.94
2023-02-24T14:54:43.097Z,95252.19
2023-02-24T14:59:47.757Z,95251.41
2023-02-24T15:04:52.463Z,95242.88
2023-02-24T15:09:57.748Z,95241.75
2023-02-24T15:15:02.717Z,95239.53
2023-02-24T15:20:26.634Z,95228.06
2023-02-24T15:25:42.474Z,95223.41
2023-02-24T15:30:57.870Z,95212.97
2023-02-24T15:36:01.396Z,95214.00
2023-02-24T15:41:08.837Z,95215.72
2023-02-24T15:46:16.828Z,95218.88
2023-02-24T15:51:25.163Z,95209.25
2023-02-24T15:56:33.358Z,95206.94
2023-02-24T16:01:36.225Z,95201.38
2023-02-24T16:06:41.753Z,95209.53
2023-02-24T16:11:47.751Z,95206.31
2023-02-24T16:16:50.656Z,95209.03
2023-02-24T16:21:53.484Z,95204.41
2023-02-24T16:26:57.613Z,95209.66
2023-02-24T16:32:00.799Z,95206.13
2023-02-24T16:37:03.730Z,95205.34
2023-02-24T16:42:08.528Z,95209.50
2023-02-24T16:47:15.842Z,95204.38
2023-02-24T16:52:19.159Z,95213.13
2023-02-24T16:57:26.480Z,95216.97
2023-02-24T17:02:29.380Z,95221.44
2023-02-24T17:07:32.213Z,95224.47
2023-02-24T17:12:36.426Z,95230.50
2023-02-24T17:17:39.221Z,95231.00
2023-02-24T17:22:42.108Z,95227.63
2023-02-24T17:27:46.368Z,95228.75
2023-02-24T17:32:49.905Z,95229.84
2023-02-24T17:37:52.999Z,95232.25
2023-02-24T17:42:57.137Z,95243.13
2023-02-24T17:47:59.995Z,95248.03
2023-02-24T17:53:02.972Z,95249.16
2023-02-24T17:58:07.242Z,95260.63
2023-02-24T18:03:10.263Z,95259.84
2023-02-24T18:08:14.648Z,95253.94
2023-02-24T18:13:18.869Z,95263.97
2023-02-24T18:18:21.697Z,95270.22
2023-02-24T18:23:24.565Z,95273.72
2023-02-24T18:28:28.811Z,95264.78
2023-02-24T18:33:31.932Z,95272.59
2023-02-24T18:38:38.232Z,95278.38
2023-02-24T18:43:43.314Z,95281.66
2023-02-24T18:48:46.857Z,95284.38
2023-02-24T18:53:52.599Z,95294.41
2023-02-24T18:58:58.665Z,95288.19
2023-02-24T19:04:04.481Z,95290.31
2023-02-24T19:09:09.710Z,95278.13
2023-02-24T19:14:14.316Z,95295.22
2023-02-24T19:19:17.576Z,95296.63
2023-02-24T19:24:21.241Z,95309.41
2023-02-24T19:29:27.887Z,95307.50
2023-02-24T19:34:30.931Z,95304.78
2023-02-24T19:39:33.775Z,95320.59
2023-02-24T19:44:38.126Z,95329.19
2023-02-24T19:49:41.048Z,95332.56
2023-02-24T19:54:44.013Z,95326.44
2023-02-24T19:59:51.776Z,95325.94
2023-02-24T20:04:55.130Z,95324.34
2023-02-24T20:09:58.316Z,95339.00
2023-02-24T20:15:02.974Z,95337.22
2023-02-24T20:20:06.875Z,95356.69
2023-02-24T20:25:10.281Z,95344.75
2023-02-24T20:30:15.913Z,95355.09
2023-02-24T20:35:18.853Z,95359.09
2023-02-24T20:40:23.715Z,95359.09
2023-02-24T20:45:28.828Z,95359.22
2023-02-24T20:50:32.078Z,95366.28
2023-02-24T20:55:34.986Z,95361.94
2023-02-24T21:00:40.512Z,95356.03
2023-02-24T21:05:44.919Z,95363.75
2023-02-24T21:10:47.924Z,95360.22
2023-02-24T21:15:54.006Z,95367.25
2023-02-24T21:20:56.803Z,95378.41
2023-02-24T21:25:59.822Z,95383.03
2023-02-24T21:31:08.844Z,95378.41
2023-02-24T21:36:14.844Z,95385.47
2023-02-24T21:41:19.274Z,95369.97
2023-02-24T21:46:27.935Z,95388.34
2023-02-24T21:51:31.116Z,95384.81
2023-02-24T21:56:33.899Z,95381.00
2023-02-24T22:01:40.198Z,95369.38
2023-02-24T22:06:44.611Z,95367.75
2023-02-24T22:11:48.828Z,95387.53
2023-02-24T22:16:53.099Z,95382.41
2023-02-24T22:21:59.376Z,95399.50
2023-02-24T22:27:02.423Z,95395.97
2023-02-24T22:32:06.655Z,95393.59
2023-02-24T22:37:09.709Z,95401.72
2023-02-24T22:42:12.614Z,95406.84
2023-02-24T22:47:16.918Z,95420.41
2023-02-24T22:52:20.315Z,95425.03
2023-02-24T22:57:23.173Z,95419.63
2023-02-24T23:02:27.541Z,95431.59
2023-02-24T23:07:30.411Z,95426.94
2023-02-24T23:12:33.378Z,95433.19
2023-02-24T23:17:37.586Z,95444.03
2023-02-24T23:22:40.570Z,95443.22
2023-02-24T23:27:43.478Z,95439.72
2023-02-24T23:32:47.936Z,95441.63
2023-02-24T23:37:50.773Z,95440.50
2023-02-24T23:42:54.280Z,95438.59
2023-02-24T23:47:59.379Z,95454.88
2023-02-24T23:53:04.599Z,95467.34
2023-02-24T23:58:07.570Z,95461.44
